Time;durP1;ratioP1;P1;durP2;ratioP2;P2;SDS_P1;SDS_P2;PMS_P1;PMS_P2;Temp;Humidity;BMP_temperature;BMP_pressure;BME280_temperature;BME280_humidity;BME280_pressure;Samples;Min_cycle;Max_cycle;Signal;HPM_P1;HPM_P2
2024/04/12 00:01:20;;;;;;;4.97;1.80;;;8.40;99.90;;;;;;5486231;26;20006;-63
2024/04/12 00:03:48;;;;;;;3.45;1.40;;;8.40;99.90;;;;;;5483740;26;20010;-64
2024/04/12 00:06:15;;;;;;;3.67;1.58;;;8.40;99.90;;;;;;5482623;26;20002;-63
2024/04/12 00:08:49;;;;;;;6.03;1.83;;;8.40;99.90;;;;;;5483389;26;20005;-63
2024/04/12 00:11:20;;;;;;;3.33;2.10;;;8.40;99.90;;;;;;5483996;26;20393;-64
2024/04/12 00:13:48;;;;;;;5.63;2.25;;;8.30;99.90;;;;;;5483664;26;20463;-63
2024/04/12 00:16:25;;;;;;;3.55;1.80;;;8.30;99.90;;;;;;5483364;26;19998;-63
2024/04/12 00:19:30;;;;;;;7.47;2.22;;;8.30;99.90;;;;;;5480446;26;20384;-63
2024/04/12 00:21:46;;;;;;;5.95;2.17;;;8.30;99.90;;;;;;5479021;26;20018;-63
2024/04/12 00:24:15;;;;;;;5.15;1.95;;;8.20;99.90;;;;;;5482559;26;20327;-63
2024/04/12 00:26:45;;;;;;;2.95;1.95;;;8.20;99.90;;;;;;5483908;26;20675;-62
2024/04/12 00:29:25;;;;;;;4.25;2.00;;;8.20;99.90;;;;;;5482811;26;20348;-63
2024/04/12 00:31:55;;;;;;;3.85;1.65;;;8.10;99.90;;;;;;5482008;26;20334;-63
2024/04/12 00:34:26;;;;;;;5.43;2.85;;;8.10;99.90;;;;;;5483042;26;20048;-63
2024/04/12 00:37:06;;;;;;;4.75;2.22;;;8.00;99.90;;;;;;5483475;26;20469;-63
2024/04/12 00:39:36;;;;;;;6.97;2.10;;;8.00;99.90;;;;;;5479471;26;20076;-63
2024/04/12 00:42:08;;;;;;;5.57;2.30;;;8.00;99.90;;;;;;5484556;26;20002;-63
2024/04/12 00:44:42;;;;;;;5.97;1.80;;;8.00;99.90;;;;;;5478519;26;20005;-63
2024/04/12 00:47:17;;;;;;;2.25;1.70;;;8.00;99.90;;;;;;5479644;26;20022;-63
2024/04/12 00:49:51;;;;;;;4.45;2.03;;;7.90;99.90;;;;;;5483782;26;19995;-63
2024/04/12 00:52:22;;;;;;;3.97;1.90;;;7.90;99.90;;;;;;5491053;26;20410;-63
2024/04/12 00:54:54;;;;;;;6.47;1.73;;;7.90;99.90;;;;;;5481986;26;20794;-63
2024/04/12 00:57:21;;;;;;;5.85;1.83;;;7.90;99.90;;;;;;5482127;26;20017;-63
2024/04/12 00:59:51;;;;;;;3.80;1.63;;;7.90;99.90;;;;;;5485194;26;20094;-64
2024/04/12 01:02:22;;;;;;;7.28;2.40;;;7.80;99.90;;;;;;5482689;26;20002;-63
2024/04/12 01:04:49;;;;;;;6.07;2.33;;;7.80;99.90;;;;;;5455998;26;20071;-63
2024/04/12 01:07:18;;;;;;;5.97;2.30;;;7.80;99.90;;;;;;5482291;26;20828;-63
2024/04/12 01:09:45;;;;;;;5.28;1.80;;;7.80;99.90;;;;;;5482157;26;20151;-63
2024/04/12 01:12:17;;;;;;;4.00;2.25;;;7.80;99.90;;;;;;5482196;26;20006;-63
2024/04/12 01:14:46;;;;;;;4.15;1.77;;;7.80;99.90;;;;;;5486021;26;19998;-63
2024/04/12 01:17:13;;;;;;;4.28;1.70;;;7.70;99.90;;;;;;5482248;26;20017;-63
2024/04/12 01:19:40;;;;;;;2.67;1.60;;;7.80;99.90;;;;;;5481712;26;20016;-63
2024/04/12 01:22:08;;;;;;;2.15;1.60;;;7.70;99.90;;;;;;5481162;26;20356;-63
2024/04/12 01:24:39;;;;;;;3.45;2.40;;;7.70;99.90;;;;;;5480911;26;20010;-63
2024/04/12 01:27:06;;;;;;;6.93;2.03;;;7.60;99.90;;;;;;5481875;26;20074;-63
2024/04/12 01:29:33;;;;;;;4.30;1.63;;;7.60;99.90;;;;;;5482249;26;19998;-63
2024/04/12 01:32:04;;;;;;;4.47;1.70;;;7.60;99.90;;;;;;5483261;26;20010;-63
2024/04/12 01:34:31;;;;;;;4.97;1.75;;;7.60;99.90;;;;;;5481215;26;20029;-63
2024/04/12 01:37:03;;;;;;;5.28;1.77;;;7.50;99.90;;;;;;5482149;26;20006;-63
2024/04/12 01:39:30;;;;;;;7.60;1.95;;;7.50;99.90;;;;;;5478060;26;20502;-62
2024/04/12 01:41:57;;;;;;;5.20;1.90;;;7.50;99.90;;;;;;5482116;26;20052;-63
2024/04/12 01:44:24;;;;;;;3.83;1.70;;;7.40;99.90;;;;;;5484787;26;20010;-63
2024/04/12 01:46:52;;;;;;;4.20;1.77;;;7.40;99.90;;;;;;5478654;26;20009;-63
2024/04/12 01:49:22;;;;;;;4.32;1.83;;;7.40;99.90;;;;;;5481918;26;20006;-63
2024/04/12 01:51:49;;;;;;;3.38;1.85;;;7.40;99.90;;;;;;5482681;26;20010;-64
2024/04/12 01:54:17;;;;;;;2.42;1.50;;;7.40;99.90;;;;;;5481093;26;20013;-63
2024/04/12 01:56:47;;;;;;;4.03;1.70;;;7.40;99.90;;;;;;5482750;26;20002;-63
2024/04/12 01:59:15;;;;;;;7.30;2.10;;;7.40;99.90;;;;;;5484796;26;20013;-63
2024/04/12 02:01:46;;;;;;;5.07;2.20;;;7.30;99.90;;;;;;5481762;26;20790;-63
2024/04/12 02:04:18;;;;;;;3.83;1.45;;;7.30;99.90;;;;;;5482261;26;20078;-63
2024/04/12 02:06:47;;;;;;;6.30;1.83;;;7.30;99.90;;;;;;5480449;26;19997;-63
2024/04/12 02:09:16;;;;;;;4.65;1.60;;;7.30;99.90;;;;;;5481819;26;20458;-63
2024/04/12 02:11:47;;;;;;;3.47;2.17;;;7.30;99.90;;;;;;5480359;26;20074;-63
2024/04/12 02:14:14;;;;;;;8.18;2.10;;;7.30;99.90;;;;;;5422235;26;20006;-63
2024/04/12 02:16:42;;;;;;;2.33;1.50;;;7.30;99.90;;;;;;5480806;26;20042;-63
2024/04/12 02:19:18;;;;;;;6.72;1.83;;;7.30;99.90;;;;;;5482105;26;19998;-63
2024/04/12 02:21:46;;;;;;;5.07;2.00;;;7.30;99.90;;;;;;5482196;26;19994;-63
2024/04/12 02:24:13;;;;;;;4.28;2.00;;;7.30;99.90;;;;;;5480536;26;20020;-63
2024/04/12 02:26:42;;;;;;;5.88;1.80;;;7.30;99.90;;;;;;5481449;26;20454;-63
2024/04/12 02:29:09;;;;;;;3.35;1.83;;;7.20;99.90;;;;;;5483402;26;20006;-63
2024/04/12 02:31:36;;;;;;;3.33;1.60;;;7.20;99.90;;;;;;5481565;26;19994;-63
2024/04/12 02:34:03;;;;;;;4.03;1.63;;;7.20;99.90;;;;;;5480669;26;20545;-63
2024/04/12 02:36:33;;;;;;;4.22;2.13;;;7.20;99.90;;;;;;5482237;26;20677;-63
2024/04/12 02:39:04;;;;;;;2.95;1.85;;;7.10;99.90;;;;;;5478585;26;20056;-63
2024/04/12 02:41:37;;;;;;;3.13;1.88;;;7.10;99.90;;;;;;5479851;26;20026;-63
2024/04/12 02:44:06;;;;;;;3.33;1.73;;;7.10;99.90;;;;;;5480611;26;20008;-63
2024/04/12 02:46:33;;;;;;;3.83;1.80;;;7.10;99.90;;;;;;5476182;26;20370;-63
2024/04/12 02:49:04;;;;;;;3.03;1.70;;;7.10;99.90;;;;;;5481239;26;20006;-63
2024/04/12 02:51:31;;;;;;;2.17;1.70;;;7.10;99.90;;;;;;5481064;26;20002;-63
2024/04/12 02:53:58;;;;;;;3.60;1.73;;;7.10;99.90;;;;;;5482645;26;20001;-63
2024/04/12 02:56:26;;;;;;;4.30;1.90;;;7.00;99.90;;;;;;5480677;26;20078;-63
2024/04/12 02:58:53;;;;;;;4.35;1.90;;;7.00;99.90;;;;;;5482341;26;20393;-63
2024/04/12 03:01:25;;;;;;;3.92;1.98;;;7.00;99.90;;;;;;5480882;26;20005;-63
2024/04/12 03:03:58;;;;;;;3.38;1.80;;;7.00;99.90;;;;;;5480376;26;20059;-63
2024/04/12 03:06:29;;;;;;;6.47;2.17;;;6.90;99.90;;;;;;5480450;26;20014;-63
2024/04/12 03:09:05;;;;;;;;;;;6.90;99.90;;;;;;5480281;26;20002;-63
2024/04/12 03:11:35;;;;;;;5.13;1.67;;;6.90;99.90;;;;;;5479633;26;19932;-63
2024/04/12 03:14:12;;;;;;;5.25;1.83;;;6.90;99.90;;;;;;5481181;26;20403;-63
2024/04/12 03:16:41;;;;;;;4.15;2.20;;;6.90;99.90;;;;;;5477984;26;20001;-63
2024/04/12 03:19:14;;;;;;;4.50;1.70;;;6.90;99.90;;;;;;5479719;26;20355;-63
2024/04/12 03:21:42;;;;;;;5.45;2.22;;;6.80;99.90;;;;;;5480359;26;19994;-63
2024/04/12 03:24:10;;;;;;;3.40;2.05;;;6.80;99.90;;;;;;5480098;26;20022;-63
2024/04/12 03:26:38;;;;;;;2.53;1.80;;;6.90;99.90;;;;;;5481094;26;20021;-63
2024/04/12 03:29:05;;;;;;;6.18;1.90;;;6.90;99.90;;;;;;5480856;26;20006;-63
2024/04/12 03:31:38;;;;;;;5.22;1.85;;;6.90;99.90;;;;;;5481088;26;19998;-63
2024/04/12 03:34:06;;;;;;;2.90;1.63;;;6.90;99.90;;;;;;5480909;26;19998;-63
2024/04/12 03:41:58;;;;;;;3.05;1.80;;;6.90;99.90;;;;;;5478483;26;20017;-64
2024/04/12 03:44:30;;;;;;;5.85;2.03;;;7.00;99.90;;;;;;5481419;26;20017;-63
2024/04/12 03:47:01;;;;;;;4.13;1.85;;;6.90;99.90;;;;;;5476911;26;20020;-63
2024/04/12 03:49:32;;;;;;;2.53;1.88;;;6.90;99.90;;;;;;5454902;26;20025;-63
2024/04/12 03:51:59;;;;;;;5.53;1.73;;;6.90;99.90;;;;;;5480802;26;20327;-63
2024/04/12 03:54:27;;;;;;;4.47;1.92;;;6.90;99.90;;;;;;5479608;26;19999;-63
2024/04/12 03:56:56;;;;;;;5.05;2.17;;;6.90;99.90;;;;;;5479353;26;20006;-63
2024/04/12 03:59:30;;;;;;;9.27;1.98;;;6.90;99.90;;;;;;5477988;26;20002;-63
2024/04/12 04:01:57;;;;;;;3.20;2.35;;;6.90;99.90;;;;;;5479795;26;20017;-64
2024/04/12 04:04:37;;;;;;;4.22;2.10;;;7.00;99.90;;;;;;5479966;26;20010;-64
2024/04/12 04:07:05;;;;;;;8.75;2.30;;;6.90;99.90;;;;;;5479173;26;20071;-64
2024/04/12 04:09:32;;;;;;;3.83;2.20;;;6.90;99.90;;;;;;5478401;26;20075;-63
2024/04/12 04:11:59;;;;;;;3.38;1.85;;;6.90;99.90;;;;;;5480217;26;20002;-63
2024/04/12 04:14:27;;;;;;;8.57;2.15;;;6.80;99.90;;;;;;5485660;26;20078;-63
2024/04/12 04:16:56;;;;;;;9.48;2.58;;;6.80;99.90;;;;;;5478852;26;20006;-63
2024/04/12 04:19:31;;;;;;;7.30;1.95;;;6.80;99.90;;;;;;5479415;26;20018;-63
2024/04/12 04:22:01;;;;;;;8.18;2.55;;;6.70;99.90;;;;;;5479371;26;20002;-63
2024/04/12 04:24:29;;;;;;;3.85;2.00;;;6.70;99.90;;;;;;5478675;26;20387;-63
2024/04/12 04:26:56;;;;;;;4.00;2.17;;;6.70;99.90;;;;;;5479819;26;20002;-63
2024/04/12 04:29:24;;;;;;;8.48;2.83;;;6.70;99.90;;;;;;5480635;26;20773;-63
2024/04/12 04:31:52;;;;;;;5.63;2.38;;;6.70;99.90;;;;;;5479635;26;20387;-63
2024/04/12 04:34:20;;;;;;;5.50;2.70;;;6.70;99.90;;;;;;5475991;26;20502;-63
2024/04/12 04:36:49;;;;;;;3.15;2.13;;;6.70;99.90;;;;;;5479504;26;20004;-63
2024/04/12 04:39:16;;;;;;;3.78;2.13;;;6.70;99.90;;;;;;5476163;26;20002;-63
2024/04/12 04:41:47;;;;;;;4.70;2.33;;;6.70;99.90;;;;;;5480215;26;20449;-63
2024/04/12 04:44:17;;;;;;;3.60;2.30;;;6.70;99.90;;;;;;5480121;26;20003;-64
2024/04/12 04:46:49;;;;;;;3.45;2.58;;;6.60;99.90;;;;;;5478861;26;20521;-63
2024/04/12 04:49:19;;;;;;;4.47;2.58;;;6.60;99.90;;;;;;5482461;26;20017;-63
2024/04/12 04:51:46;;;;;;;11.48;2.78;;;6.60;99.90;;;;;;5479434;26;20057;-64
2024/04/12 04:54:15;;;;;;;7.47;2.55;;;6.60;99.90;;;;;;5475343;26;20025;-63
2024/04/12 04:56:44;;;;;;;4.10;2.63;;;6.60;99.90;;;;;;5480913;26;19994;-63
2024/04/12 04:59:26;;;;;;;7.15;2.70;;;6.60;99.90;;;;;;5473684;26;20010;-60
2024/04/12 05:01:52;;;;;;;5.22;2.90;;;6.70;99.90;;;;;;5480568;26;20005;-58
2024/04/12 05:04:20;;;;;;;5.53;2.88;;;6.70;99.90;;;;;;5483277;26;20442;-60
2024/04/12 05:06:50;;;;;;;6.18;2.90;;;6.80;99.90;;;;;;5483680;26;20016;-59
2024/04/12 05:09:18;;;;;;;4.75;3.13;;;6.80;99.90;;;;;;5482942;26;20014;-60
2024/04/12 05:11:49;;;;;;;7.35;3.10;;;6.80;99.90;;;;;;5483455;26;20062;-60
2024/04/12 05:17:05;;;;;;;4.35;2.28;;;7.00;99.90;;;;;;5477577;26;20018;-58
2024/04/12 05:19:40;;;;;;;8.30;2.78;;;7.00;99.90;;;;;;5483537;26;20006;-60
2024/04/12 05:22:09;;;;;;;7.85;2.60;;;7.10;99.90;;;;;;5479483;26;20124;-60
2024/04/12 05:24:36;;;;;;;5.70;2.30;;;7.20;99.90;;;;;;5481631;26;19998;-63
2024/04/12 05:27:04;;;;;;;5.00;2.85;;;7.30;99.90;;;;;;5482714;26;20002;-63
2024/04/12 05:29:32;;;;;;;7.00;2.17;;;7.40;99.90;;;;;;5481571;26;20002;-63
2024/04/12 05:32:00;;;;;;;3.65;2.33;;;7.50;99.90;;;;;;5481100;26;19998;-63
2024/04/12 05:34:28;;;;;;;4.05;2.10;;;7.50;99.90;;;;;;5482603;26;19998;-62
2024/04/12 05:37:00;;;;;;;7.20;2.80;;;7.50;99.90;;;;;;5482148;26;21611;-62
2024/04/12 05:39:27;;;;;;;7.88;2.60;;;7.50;99.90;;;;;;5482622;26;19994;-63
2024/04/12 05:41:54;;;;;;;4.15;2.55;;;7.60;99.90;;;;;;5481183;26;19994;-63
2024/04/12 05:44:22;;;;;;;6.63;2.45;;;7.70;99.90;;;;;;5480416;26;20017;-62
2024/04/12 05:46:49;;;;;;;4.13;2.47;;;7.80;99.90;;;;;;5484972;26;20664;-62
2024/04/12 05:49:17;;;;;;;4.43;2.60;;;7.90;99.90;;;;;;5480247;26;20026;-62
2024/04/12 05:51:44;;;;;;;6.00;2.60;;;7.90;99.90;;;;;;5475847;26;20014;-62
2024/04/12 05:54:15;;;;;;;12.27;2.58;;;8.00;99.90;;;;;;5484956;26;20411;-61
2024/04/12 05:56:51;;;;;;;6.43;2.40;;;8.00;99.90;;;;;;5480739;26;20006;-63
2024/04/12 05:59:17;;;;;;;5.03;2.60;;;8.10;99.90;;;;;;5477699;26;20388;-62
2024/04/12 06:01:46;;;;;;;6.45;2.63;;;8.20;99.90;;;;;;5477498;26;20006;-59
2024/04/12 06:04:17;;;;;;;5.50;2.35;;;8.20;99.90;;;;;;5478811;26;19998;-63
2024/04/12 06:06:47;;;;;;;5.22;2.45;;;8.20;99.90;;;;;;5479310;26;20100;-63
2024/04/12 06:09:21;;;;;;;7.18;2.95;;;8.20;99.90;;;;;;5481812;26;20364;-57
2024/04/12 06:11:52;;;;;;;6.88;3.22;;;8.20;99.90;;;;;;5453160;26;19994;-63
2024/04/12 06:14:21;;;;;;;7.07;3.47;;;8.30;99.90;;;;;;5479340;26;19995;-63
2024/04/12 06:16:51;;;;;;;13.00;3.30;;;8.30;99.90;;;;;;5480247;26;20376;-63
2024/04/12 06:19:18;;;;;;;10.85;3.35;;;8.40;99.90;;;;;;5480070;26;20051;-63
2024/04/12 06:21:46;;;;;;;9.07;3.33;;;8.50;99.90;;;;;;5480700;26;20016;-62
2024/04/12 06:24:16;;;;;;;8.30;3.00;;;8.60;99.90;;;;;;5482572;26;20009;-62
2024/04/12 06:26:47;;;;;;;6.22;3.20;;;8.70;99.90;;;;;;5483847;26;19998;-62
2024/04/12 06:29:17;;;;;;;5.00;2.53;;;8.80;99.90;;;;;;5485871;26;20006;-63
2024/04/12 06:31:58;;;;;;;8.75;3.53;;;8.90;99.90;;;;;;5481592;26;19998;-63
2024/04/12 06:34:25;;;;;;;6.90;2.95;;;8.90;99.90;;;;;;5482940;26;20009;-66
2024/04/12 06:36:57;;;;;;;10.65;3.28;;;8.90;99.90;;;;;;5482677;26;20017;-62
2024/04/12 06:39:27;;;;;;;9.85;3.60;;;9.00;99.90;;;;;;5487098;26;20003;-62
2024/04/12 06:41:55;;;;;;;6.22;3.15;;;9.00;99.90;;;;;;5480897;26;20063;-62
2024/04/12 06:44:22;;;;;;;7.75;3.67;;;9.10;99.90;;;;;;5482436;26;20009;-62
2024/04/12 06:46:49;;;;;;;8.18;3.75;;;9.10;99.90;;;;;;5472910;26;20467;-61
2024/04/12 06:49:16;;;;;;;10.80;3.85;;;9.10;99.90;;;;;;5486200;26;20012;-62
2024/04/12 06:52:09;;;;;;;5.53;3.05;;;9.20;99.90;;;;;;5480448;26;20006;-61
2024/04/12 06:54:35;;;;;;;4.55;3.03;;;9.30;99.90;;;;;;5477843;26;20489;-60
2024/04/12 06:57:04;;;;;;;6.30;2.88;;;9.40;99.90;;;;;;5487946;26;19997;-61
2024/04/12 06:59:40;;;;;;;8.38;3.15;;;9.50;99.90;;;;;;5482609;26;19998;-59
2024/04/12 07:02:13;;;;;;;5.57;3.17;;;9.60;99.90;;;;;;5476787;26;19994;-60
2024/04/12 07:04:41;;;;;;;8.60;3.00;;;9.70;99.90;;;;;;5479869;26;20018;-58
2024/04/12 07:07:08;;;;;;;8.50;3.95;;;9.90;99.90;;;;;;5479424;26;19998;-60
2024/04/12 07:09:37;;;;;;;6.63;3.05;;;10.00;99.90;;;;;;5476601;26;20017;-61
2024/04/12 07:12:08;;;;;;;7.35;3.25;;;10.10;99.90;;;;;;5476676;26;20013;-61
2024/04/12 07:14:41;;;;;;;8.20;3.80;;;10.20;99.90;;;;;;5479353;26;20018;-61
2024/04/12 07:17:20;;;;;;;8.38;3.20;;;10.30;99.90;;;;;;5477881;26;20003;-60
2024/04/12 07:19:49;;;;;;;8.13;3.63;;;10.50;99.90;;;;;;5478821;26;20011;-60
2024/04/12 07:22:20;;;;;;;6.32;3.17;;;10.70;99.90;;;;;;5479754;26;20082;-61
2024/04/12 07:24:50;;;;;;;5.75;3.20;;;10.80;99.90;;;;;;5478782;26;20009;-58
2024/04/12 07:27:27;;;;;;;8.00;3.15;;;11.00;99.90;;;;;;5479982;26;20017;-59
2024/04/12 07:29:57;;;;;;;8.82;3.03;;;11.10;99.90;;;;;;5478230;26;20005;-56
2024/04/12 07:32:25;;;;;;;7.35;3.47;;;11.30;99.90;;;;;;5478873;26;20018;-57
2024/04/12 07:34:52;;;;;;;5.97;2.50;;;11.40;99.90;;;;;;5479679;26;20387;-59
2024/04/12 07:37:27;;;;;;;6.28;2.90;;;11.50;99.90;;;;;;5478870;26;20003;-59
2024/04/12 07:42:46;;;;;;;9.65;2.70;;;11.80;99.90;;;;;;5478016;26;20005;-62
2024/04/12 07:45:20;;;;;;;8.73;2.47;;;11.90;99.90;;;;;;5482148;26;19998;-62
2024/04/12 07:47:53;;;;;;;7.72;2.55;;;12.00;99.90;;;;;;5478362;26;20097;-62
2024/04/12 07:50:31;;;;;;;6.35;2.53;;;12.20;99.90;;;;;;5476712;26;20407;-62
2024/04/12 07:55:44;;;;;;;4.88;2.80;;;12.30;99.90;;;;;;5477982;26;20759;-62
2024/04/12 07:58:13;;;;;;;6.18;2.45;;;12.30;99.90;;;;;;5478678;26;19999;-61
2024/04/12 08:00:46;;;;;;;9.38;2.60;;;12.40;99.90;;;;;;5478226;26;20043;-60
2024/04/12 08:03:17;;;;;;;7.28;2.83;;;12.50;99.90;;;;;;5441345;26;20461;-60
2024/04/12 08:06:03;;;;;;;6.15;2.50;;;12.50;99.90;;;;;;5472943;26;20006;-62
2024/04/12 08:08:32;;;;;;;6.65;2.45;;;12.50;99.90;;;;;;5468288;26;20009;-60
2024/04/12 08:11:10;;;;;;;5.30;2.95;;;12.70;99.90;;;;;;5476050;26;20028;-62
2024/04/12 08:13:50;;;;;;;6.35;2.72;;;12.70;99.90;;;;;;5475540;26;20498;-62
2024/04/12 08:16:23;;;;;;;8.23;3.13;;;12.70;99.90;;;;;;5479624;26;20460;-61
2024/04/12 08:18:54;;;;;;;6.22;2.97;;;12.80;99.90;;;;;;5449937;26;20075;-61
2024/04/12 08:21:27;;;;;;;6.80;2.78;;;13.00;99.90;;;;;;5448376;26;19998;-60
2024/04/12 08:23:56;;;;;;;11.57;3.05;;;13.10;99.90;;;;;;5480129;26;20058;-60
2024/04/12 08:26:27;;;;;;;8.23;3.42;;;13.10;99.90;;;;;;5480309;26;20086;-60
2024/04/12 08:28:54;;;;;;;7.00;2.72;;;13.20;99.90;;;;;;5481230;26;20773;-58
2024/04/12 08:31:23;;;;;;;8.15;3.00;;;13.30;99.90;;;;;;5449999;26;20065;-61
2024/04/12 08:33:53;;;;;;;11.07;2.85;;;13.30;99.90;;;;;;5480135;26;20006;-60
2024/04/12 08:36:24;;;;;;;9.20;3.47;;;13.40;99.90;;;;;;5478364;26;20542;-59
2024/04/12 08:38:54;;;;;;;6.93;2.90;;;13.40;99.90;;;;;;5480711;26;20239;-61
2024/04/12 08:41:23;;;;;;;;;;;13.40;99.90;;;;;;5480394;26;20013;-60
2024/04/12 08:43:58;;;;;;;7.97;2.70;;;13.50;99.90;;;;;;5480562;26;19924;-62
2024/04/12 08:46:33;;;;;;;4.32;2.40;;;13.60;99.90;;;;;;5448434;26;20021;-58
2024/04/12 08:49:04;;;;;;;7.40;3.08;;;13.60;99.90;;;;;;5473712;26;20002;-60
2024/04/12 08:51:34;;;;;;;7.32;3.00;;;13.70;99.90;;;;;;5479921;26;19998;-61
2024/04/12 08:54:05;;;;;;;7.95;2.88;;;13.80;99.90;;;;;;5479430;26;20010;-61
2024/04/12 08:56:32;;;;;;;6.57;2.30;;;13.80;99.90;;;;;;5473188;26;20018;-61
2024/04/12 08:59:08;;;;;;;6.35;2.83;;;13.90;99.90;;;;;;5479376;26;20002;-61
2024/04/12 09:01:40;;;;;;;9.45;2.92;;;13.90;99.90;;;;;;5478367;26;20029;-61
2024/04/12 09:04:14;;;;;;;6.13;2.88;;;13.90;99.90;;;;;;5445299;26;20079;-63
2024/04/12 09:06:42;;;;;;;5.50;3.22;;;13.90;99.90;;;;;;5480452;26;20026;-62
2024/04/12 09:09:13;;;;;;;5.40;2.42;;;14.00;99.90;;;;;;5475549;26;20002;-61
2024/04/12 09:11:44;;;;;;;7.75;2.60;;;14.10;99.90;;;;;;5479399;26;19994;-61
2024/04/12 09:14:19;;;;;;;8.32;3.45;;;14.20;99.90;;;;;;5478159;26;20683;-62
2024/04/12 09:16:48;;;;;;;6.93;3.10;;;14.30;99.90;;;;;;5479848;26;20002;-62
2024/04/12 09:19:15;;;;;;;9.50;3.63;;;14.30;99.90;;;;;;5479973;26;20033;-61
2024/04/12 09:21:51;;;;;;;6.03;2.97;;;14.50;99.90;;;;;;5448299;26;20008;-62
2024/04/12 09:24:31;;;;;;;8.40;3.38;;;14.50;99.90;;;;;;5478639;26;20391;-60
2024/04/12 09:27:06;;;;;;;7.13;3.80;;;14.60;99.90;;;;;;5478467;26;20070;-61
2024/04/12 09:29:43;;;;;;;7.87;3.60;;;14.60;99.90;;;;;;5479862;26;20017;-60
2024/04/12 09:34:59;;;;;;;9.13;3.67;;;14.70;99.90;;;;;;5479054;26;19994;-61
2024/04/12 09:40:40;;;;;;;12.63;3.10;;;14.80;99.90;;;;;;5480225;26;20010;-62
2024/04/12 09:42:47;;;;;;;9.20;3.17;;;14.90;99.90;;;;;;5463634;26;20010;-62
2024/04/12 09:45:21;;;;;;;10.70;3.28;;;15.00;99.90;;;;;;5478316;26;20014;-63
2024/04/12 10:39:16;;;;;;;8.88;4.60;;;16.30;99.90;;;;;;5474129;26;20010;-61
2024/04/12 10:41:45;;;;;;;10.52;4.68;;;16.40;99.90;;;;;;5476218;26;20071;-61
2024/04/12 10:44:13;;;;;;;10.07;4.45;;;16.50;99.90;;;;;;5476706;26;20034;-61
2024/04/12 10:46:39;;;;;;;9.30;4.18;;;16.50;99.90;;;;;;5476165;26;20071;-61
2024/04/12 10:49:09;;;;;;;12.77;4.50;;;16.50;99.90;;;;;;5475683;26;20709;-61
2024/04/12 10:51:39;;;;;;;8.68;4.30;;;16.80;99.90;;;;;;5475330;26;20024;-61
2024/04/12 10:54:10;;;;;;;6.05;4.38;;;17.00;99.90;;;;;;5445651;26;20017;-61
2024/04/12 10:56:47;;;;;;;6.50;3.70;;;17.00;99.90;;;;;;5475622;26;20078;-61
2024/04/12 10:59:26;;;;;;;7.97;4.13;;;17.30;99.90;;;;;;5444605;26;20009;-62
2024/04/12 11:01:59;;;;;;;8.15;4.25;;;17.40;99.90;;;;;;5475690;26;20038;-61
2024/04/12 11:05:05;;;;;;;11.18;5.03;;;17.40;99.90;;;;;;5474568;26;20025;-61
2024/04/12 11:07:17;;;;;;;5.95;4.32;;;17.40;99.90;;;;;;5473967;26;20342;-61
2024/04/12 11:09:45;;;;;;;8.52;4.30;;;17.60;99.90;;;;;;5475521;26;20343;-61
2024/04/12 11:12:21;;;;;;;9.18;4.47;;;17.70;99.90;;;;;;5475506;26;20582;-61
2024/04/12 11:15:00;;;;;;;9.60;4.53;;;17.80;99.90;;;;;;5474574;26;19998;-61
2024/04/12 11:31:07;;;;;;;8.40;4.00;;;17.90;99.90;;;;;;5476152;26;20002;-60
2024/04/12 11:31:47;;;;;;;8.48;4.03;;;17.90;99.90;;;;;;5403415;26;20712;-60
2024/04/12 11:34:21;;;;;;;9.18;4.50;;;18.00;99.90;;;;;;5401050;26;20047;-61
2024/04/12 11:37:05;;;;;;;9.90;4.28;;;18.00;99.90;;;;;;5446976;26;20248;-63
2024/04/12 11:39:37;;;;;;;4.85;2.60;;;17.90;99.90;;;;;;5471316;26;20014;-60
2024/04/12 11:42:06;;;;;;;7.55;3.08;;;18.00;99.90;;;;;;5478142;26;19998;-60
2024/04/12 11:44:35;;;;;;;6.45;2.45;;;18.00;99.90;;;;;;5476865;26;19998;-60
2024/04/12 11:47:03;;;;;;;7.37;2.97;;;18.10;99.90;;;;;;5474745;26;20010;-60
2024/04/12 11:49:48;;;;;;;9.48;3.55;;;18.00;99.90;;;;;;5466473;26;20017;-60
2024/04/12 11:52:17;;;;;;;13.85;4.72;;;18.10;99.90;;;;;;5470763;26;19998;-61
2024/04/12 11:54:51;;;;;;;8.52;3.53;;;18.10;99.90;;;;;;5464804;26;20022;-60
2024/04/12 11:57:22;;;;;;;8.07;2.80;;;18.00;99.90;;;;;;5472554;26;19998;-60
2024/04/12 11:59:54;;;;;;;5.35;2.53;;;18.10;99.90;;;;;;5471293;26;20083;-58
2024/04/12 12:02:25;;;;;;;6.43;2.97;;;18.10;99.90;;;;;;5440053;26;20722;-60
2024/04/12 12:04:52;;;;;;;6.32;2.70;;;18.20;99.90;;;;;;5463537;26;20016;-60
2024/04/12 12:07:18;;;;;;;6.72;2.60;;;18.20;99.90;;;;;;5473182;26;20006;-60
2024/04/12 12:09:47;;;;;;;7.75;3.00;;;18.20;99.90;;;;;;5463799;26;20315;-60
2024/04/12 12:12:16;;;;;;;11.60;3.45;;;18.30;99.90;;;;;;5424425;21;20087;-61
2024/04/12 12:14:43;;;;;;;7.20;2.80;;;18.40;99.90;;;;;;5428890;26;20092;-61
2024/04/12 12:17:10;;;;;;;6.72;2.92;;;18.40;99.90;;;;;;5431709;26;20002;-61
2024/04/12 12:19:37;;;;;;;5.85;2.63;;;18.40;99.90;;;;;;5430463;26;20050;-61
2024/04/12 12:22:09;;;;;;;7.15;2.65;;;18.50;99.90;;;;;;5409499;26;20661;-61
2024/04/12 12:24:39;;;;;;;8.38;3.13;;;18.50;99.90;;;;;;5406169;26;20551;-61
2024/04/12 12:27:08;;;;;;;7.72;3.40;;;18.50;99.90;;;;;;5381287;26;20019;-61
2024/04/12 12:29:36;;;;;;;8.27;3.60;;;18.50;99.90;;;;;;5388630;26;20950;-61
2024/04/12 12:32:07;;;;;;;7.00;3.65;;;18.40;99.90;;;;;;5407143;26;20874;-59
2024/04/12 12:34:34;;;;;;;6.65;2.90;;;18.40;99.90;;;;;;5399663;26;20015;-61
2024/04/12 12:37:01;;;;;;;6.93;3.08;;;18.50;99.90;;;;;;5404462;26;20012;-61
2024/04/12 12:39:31;;;;;;;8.73;2.80;;;18.70;99.90;;;;;;5414490;26;20000;-61
2024/04/12 12:42:01;;;;;;;6.82;2.80;;;18.70;99.90;;;;;;5407466;26;19999;-61
2024/04/12 12:44:28;;;;;;;8.77;2.55;;;18.90;99.90;;;;;;5381569;26;20003;-61
2024/04/12 12:46:59;;;;;;;6.55;2.67;;;19.00;99.90;;;;;;5408747;26;20169;-59
2024/04/12 12:49:26;;;;;;;9.77;2.78;;;19.10;99.90;;;;;;5398354;26;20004;-60
2024/04/12 12:51:53;;;;;;;9.80;3.40;;;19.10;99.90;;;;;;5398767;26;20388;-61
2024/04/12 12:54:20;;;;;;;4.80;2.33;;;19.20;99.90;;;;;;5395455;26;20444;-60
2024/04/12 12:56:47;;;;;;;8.23;3.30;;;19.20;99.90;;;;;;5398022;26;20239;-61
2024/04/12 12:59:14;;;;;;;10.43;3.03;;;19.40;99.90;;;;;;5396107;26;20015;-61
2024/04/12 13:01:41;;;;;;;5.97;2.90;;;19.50;99.90;;;;;;5403439;26;20007;-61
2024/04/12 13:04:08;;;;;;;5.72;2.85;;;19.60;99.90;;;;;;5401066;26;20000;-61
2024/04/12 13:06:37;;;;;;;10.23;3.38;;;19.80;99.90;;;;;;5392495;26;20004;-61
2024/04/12 13:09:05;;;;;;;8.38;3.00;;;19.90;99.90;;;;;;5396513;26;20656;-60
2024/04/12 13:11:32;;;;;;;6.53;2.58;;;20.00;99.90;;;;;;5400902;26;20004;-61
2024/04/12 13:13:59;;;;;;;10.38;2.05;;;20.20;99.90;;;;;;5397570;26;20000;-61
2024/04/12 13:16:26;;;;;;;6.13;2.30;;;20.40;99.90;;;;;;5392758;26;20003;-61
2024/04/12 13:18:56;;;;;;;9.52;3.35;;;20.50;99.90;;;;;;5387564;26;20015;-61
2024/04/12 13:21:23;;;;;;;6.25;2.65;;;20.60;99.90;;;;;;5368608;26;20012;-59
2024/04/12 13:23:50;;;;;;;4.85;2.47;;;20.70;99.90;;;;;;5392263;26;20007;-60
2024/04/12 13:26:25;;;;;;;6.63;2.45;;;20.80;99.90;;;;;;5401385;26;20018;-61
2024/04/12 13:28:53;;;;;;;7.10;2.75;;;20.70;99.90;;;;;;5394234;26;20016;-59
2024/04/12 13:31:24;;;;;;;6.13;2.38;;;20.60;99.90;;;;;;5381541;26;20031;-61
2024/04/12 13:33:54;;;;;;;4.03;2.15;;;20.60;99.90;;;;;;5394601;26;20010;-61
2024/04/12 13:36:22;;;;;;;4.78;1.92;;;20.40;99.90;;;;;;5395330;26;20339;-61
2024/04/12 13:38:49;;;;;;;7.30;2.50;;;20.40;99.90;;;;;;5392214;26;20011;-61
2024/04/12 13:41:19;;;;;;;8.25;2.40;;;20.40;99.90;;;;;;5394179;26;20027;-60
2024/04/12 13:43:49;;;;;;;5.70;2.28;;;20.20;99.90;;;;;;5401335;26;20003;-61
2024/04/12 13:52:01;;;;;;;8.68;2.67;;;20.00;99.90;;;;;;5401082;26;20364;-59
2024/04/12 13:54:29;;;;;;;9.13;3.10;;;20.00;99.90;;;;;;5397965;26;20012;-61
2024/04/12 13:56:56;;;;;;;7.20;2.65;;;20.00;99.90;;;;;;5396272;26;20020;-61
2024/04/12 13:59:24;;;;;;;5.55;2.30;;;20.00;99.90;;;;;;5392254;26;20018;-61
2024/04/12 14:01:51;;;;;;;4.63;2.42;;;20.00;99.90;;;;;;5402457;26;20000;-61
2024/04/12 14:04:18;;;;;;;4.32;2.40;;;20.00;99.90;;;;;;5397569;26;20392;-61
2024/04/12 14:06:46;;;;;;;9.20;2.50;;;20.10;99.90;;;;;;5397957;26;20011;-60
2024/04/12 14:09:21;;;;;;;4.28;1.95;;;20.10;99.90;;;;;;5396788;26;20015;-60
2024/04/12 14:11:51;;;;;;;4.63;2.30;;;20.00;99.90;;;;;;5395726;21;20008;-61
2024/04/12 14:14:20;;;;;;;9.88;2.00;;;20.10;99.90;;;;;;5366112;26;20004;-61
2024/04/12 14:16:47;;;;;;;9.60;2.25;;;20.10;99.90;;;;;;5371537;26;20020;-61
2024/04/12 14:19:18;;;;;;;7.82;2.28;;;20.10;99.90;;;;;;5365667;26;20078;-61
2024/04/12 14:21:51;;;;;;;9.38;2.65;;;20.20;99.90;;;;;;5366733;26;20018;-61
2024/04/12 14:27:07;;;;;;;4.75;1.70;;;20.40;99.90;;;;;;5364458;26;20008;-61
2024/04/12 14:29:35;;;;;;;3.75;1.73;;;20.40;99.90;;;;;;5364303;26;20008;-61
2024/04/12 14:32:11;;;;;;;6.72;1.70;;;20.50;99.90;;;;;;5371034;26;20004;-64
2024/04/12 14:34:42;;;;;;;5.63;1.90;;;20.50;99.90;;;;;;5373050;26;20012;-61
2024/04/12 14:37:14;;;;;;;5.82;1.77;;;20.60;99.90;;;;;;5368747;26;20005;-61
2024/04/12 14:39:42;;;;;;;5.05;1.90;;;20.60;99.90;;;;;;5361998;26;20012;-61